Time;durP1;ratioP1;P1;durP2;ratioP2;P2;SDS_P1;SDS_P2;PMS_P1;PMS_P2;Temp;Humidity;BMP_temperature;BMP_pressure;BME280_temperature;BME280_humidity;BME280_pressure;Samples;Min_cycle;Max_cycle;Signal;HPM_P1;HPM_P2
2023/10/17 00:01:47;;;;;;;4.43;1.80;;;10.00;99.90;;;;;;5093106;28;20040;-55
2023/10/17 00:06:45;;;;;;;4.78;1.48;;;10.00;99.90;;;;;;5092719;28;20044;-55
2023/10/17 00:09:45;;;;;;;6.53;1.48;;;10.00;99.90;;;;;;5093075;28;20437;-56
2023/10/17 00:12:27;;;;;;;5.90;1.35;;;10.00;99.90;;;;;;5091290;28;20067;-56
2023/10/17 00:17:18;;;;;;;5.00;1.60;;;10.00;99.90;;;;;;5092648;28;20040;-55
2023/10/17 00:19:45;;;;;;;6.78;1.70;;;10.00;99.90;;;;;;5092654;28;20386;-56
2023/10/17 00:22:18;;;;;;;9.60;1.92;;;10.00;99.90;;;;;;5093017;28;20464;-55
2023/10/17 00:24:46;;;;;;;5.38;1.58;;;10.00;99.90;;;;;;5096201;28;20537;-53
2023/10/17 00:27:14;;;;;;;4.95;2.30;;;10.00;99.90;;;;;;5096637;28;20064;-54
2023/10/17 00:29:41;;;;;;;4.75;1.60;;;10.00;99.90;;;;;;5096104;28;20479;-57
2023/10/17 00:32:09;;;;;;;4.50;1.70;;;10.00;99.90;;;;;;5096439;28;20047;-57
2023/10/17 00:34:36;;;;;;;3.75;1.50;;;10.00;99.90;;;;;;5095220;28;20047;-53
2023/10/17 00:37:10;;;;;;;4.38;1.55;;;10.00;99.90;;;;;;5096769;28;20460;-53
2023/10/17 00:39:38;;;;;;;6.33;1.30;;;10.00;99.90;;;;;;5095308;28;20075;-53
2023/10/17 00:44:32;;;;;;;7.35;2.03;;;10.00;99.90;;;;;;5096073;28;20050;-55
2023/10/17 00:46:59;;;;;;;4.95;1.75;;;10.00;99.90;;;;;;5096233;28;20107;-55
2023/10/17 00:49:29;;;;;;;8.90;1.48;;;10.00;99.90;;;;;;5096404;28;20059;-52
2023/10/17 00:51:55;;;;;;;4.60;1.38;;;10.00;99.90;;;;;;5095607;28;20071;-52
2023/10/17 00:54:24;;;;;;;6.32;1.85;;;10.00;99.90;;;;;;5095814;28;20044;-56
2023/10/17 00:56:52;;;;;;;4.90;1.50;;;10.00;99.90;;;;;;5094732;28;20048;-58
2023/10/17 00:59:24;;;;;;;3.25;1.35;;;10.00;99.90;;;;;;5096059;28;20463;-55
2023/10/17 01:01:51;;;;;;;4.15;1.45;;;10.00;99.90;;;;;;5095391;28;20040;-52
2023/10/17 01:04:19;;;;;;;7.40;1.80;;;10.00;99.90;;;;;;5096178;28;20036;-56
2023/10/17 01:06:53;;;;;;;4.35;1.50;;;10.10;99.90;;;;;;5095576;28;20376;-55
2023/10/17 01:09:28;;;;;;;5.70;1.63;;;10.00;99.90;;;;;;5094574;28;20488;-54
2023/10/17 01:11:55;;;;;;;4.53;1.60;;;10.00;99.90;;;;;;5095371;28;20346;-49
2023/10/17 01:14:23;;;;;;;4.43;1.63;;;10.10;99.90;;;;;;5095480;28;20078;-53
2023/10/17 01:16:53;;;;;;;6.07;1.65;;;10.10;99.90;;;;;;5094148;28;20040;-48
2023/10/17 01:19:21;;;;;;;8.90;2.35;;;10.10;99.90;;;;;;5095476;28;20039;-54
2023/10/17 01:21:49;;;;;;;8.30;1.80;;;10.10;99.90;;;;;;5093793;28;20047;-53
2023/10/17 01:24:16;;;;;;;4.20;1.60;;;10.10;99.90;;;;;;5095157;28;20036;-57
2023/10/17 01:26:45;;;;;;;9.05;2.00;;;10.10;99.90;;;;;;5095172;28;20090;-54
2023/10/17 01:29:12;;;;;;;4.68;1.65;;;10.10;99.90;;;;;;5095417;28;20072;-55
2023/10/17 01:31:39;;;;;;;7.60;2.10;;;10.00;99.90;;;;;;5093717;28;20067;-50
2023/10/17 01:34:08;;;;;;;5.85;1.60;;;10.10;99.90;;;;;;5094428;28;20040;-56
2023/10/17 01:36:36;;;;;;;7.80;2.08;;;10.00;99.90;;;;;;5093499;28;20475;-56
2023/10/17 01:39:06;;;;;;;7.93;1.60;;;10.00;99.90;;;;;;5093609;28;20182;-49
2023/10/17 01:41:33;;;;;;;6.28;1.83;;;10.00;99.90;;;;;;5093603;28;20112;-55
2023/10/17 01:44:01;;;;;;;5.85;1.85;;;10.00;99.90;;;;;;5095267;28;20127;-51
2023/10/17 01:46:31;;;;;;;3.75;1.63;;;10.00;99.90;;;;;;5093204;28;20415;-55
2023/10/17 01:49:00;;;;;;;6.28;1.85;;;10.00;99.90;;;;;;5095045;28;20123;-56
2023/10/17 01:51:27;;;;;;;5.80;1.63;;;10.00;99.90;;;;;;5093398;28;20048;-55
2023/10/17 01:53:54;;;;;;;6.03;1.70;;;10.00;99.90;;;;;;5093936;28;20048;-59
2023/10/17 01:56:25;;;;;;;4.38;1.70;;;10.00;99.90;;;;;;5094713;28;20046;-56
2023/10/17 01:58:55;;;;;;;8.32;2.58;;;10.00;99.90;;;;;;5093648;28;20078;-55
2023/10/17 02:01:25;;;;;;;11.68;2.00;;;10.00;99.90;;;;;;5093401;28;20036;-56
2023/10/17 02:03:52;;;;;;;7.82;1.80;;;10.00;99.90;;;;;;5094913;28;20036;-52
2023/10/17 02:06:21;;;;;;;7.22;1.80;;;10.00;99.90;;;;;;5093304;28;20036;-52
2023/10/17 02:08:49;;;;;;;6.25;1.77;;;10.00;99.90;;;;;;5094561;28;20379;-52
2023/10/17 02:11:28;;;;;;;5.07;1.75;;;10.00;99.90;;;;;;5093651;28;20067;-54
2023/10/17 02:13:56;;;;;;;7.05;2.03;;;10.00;99.90;;;;;;5093075;28;20808;-56
2023/10/17 02:16:23;;;;;;;4.22;1.77;;;10.00;99.90;;;;;;5092770;28;20040;-54
2023/10/17 02:18:51;;;;;;;9.27;1.98;;;10.00;99.90;;;;;;5093090;28;20127;-55
2023/10/17 02:21:20;;;;;;;4.15;1.67;;;10.00;99.90;;;;;;5094487;28;20123;-56
2023/10/17 02:23:50;;;;;;;6.03;1.80;;;10.00;99.90;;;;;;5094189;28;20537;-54
2023/10/17 02:26:21;;;;;;;8.60;1.98;;;10.00;99.90;;;;;;5093120;28;20194;-53
2023/10/17 02:28:48;;;;;;;4.05;1.55;;;10.00;99.90;;;;;;5092482;28;20047;-54
2023/10/17 02:31:16;;;;;;;5.95;1.70;;;10.00;99.90;;;;;;5092584;28;20047;-54
2023/10/17 02:33:43;;;;;;;4.72;1.73;;;10.00;99.90;;;;;;5093219;28;20241;-52
2023/10/17 02:36:13;;;;;;;4.38;1.50;;;10.00;99.90;;;;;;5092386;28;20043;-58
2023/10/17 02:38:40;;;;;;;6.93;1.90;;;10.00;99.90;;;;;;5094467;28;20060;-54
2023/10/17 02:41:09;;;;;;;4.88;1.52;;;10.00;99.90;;;;;;5094029;28;20040;-56
2023/10/17 02:43:37;;;;;;;6.70;1.50;;;10.00;99.90;;;;;;5093598;28;20044;-54
2023/10/17 02:46:04;;;;;;;6.35;2.00;;;10.00;99.90;;;;;;5091811;28;20138;-56
2023/10/17 02:48:37;;;;;;;5.25;1.52;;;10.00;99.90;;;;;;5092671;28;20060;-54
2023/10/17 02:51:11;;;;;;;4.47;1.67;;;10.00;99.90;;;;;;5093256;28;20564;-55
2023/10/17 02:53:43;;;;;;;5.63;1.63;;;9.90;99.90;;;;;;5092651;28;20521;-52
2023/10/17 02:56:19;;;;;;;5.10;1.50;;;10.00;99.90;;;;;;5092454;28;20040;-55
2023/10/17 02:58:48;;;;;;;6.00;2.17;;;9.90;99.90;;;;;;5093270;28;20502;-56
2023/10/17 03:01:15;;;;;;;2.85;1.45;;;9.90;99.90;;;;;;5093262;28;20044;-54
2023/10/17 03:03:42;;;;;;;4.80;1.70;;;9.90;99.90;;;;;;5093194;28;20463;-50
2023/10/17 03:06:09;;;;;;;5.75;1.60;;;9.90;99.90;;;;;;5093791;28;20042;-55
2023/10/17 03:08:37;;;;;;;3.90;1.35;;;9.90;99.90;;;;;;5092083;28;20052;-57
2023/10/17 03:11:16;;;;;;;6.40;1.80;;;9.90;99.90;;;;;;5093351;28;20048;-55
2023/10/17 03:13:43;;;;;;;6.45;1.95;;;9.90;99.90;;;;;;5094029;28;20055;-55
2023/10/17 03:16:26;;;;;;;6.10;1.40;;;9.90;99.90;;;;;;5093449;28;20491;-52
2023/10/17 03:18:57;;;;;;;5.13;1.60;;;9.80;99.90;;;;;;5091940;28;20048;-56
2023/10/17 03:21:34;;;;;;;4.07;1.58;;;9.80;99.90;;;;;;5093727;28;20051;-51
2023/10/17 03:24:04;;;;;;;5.22;1.60;;;9.80;99.90;;;;;;5091885;28;20036;-54
2023/10/17 03:26:41;;;;;;;2.83;1.38;;;9.90;99.90;;;;;;5092169;28;20036;-51
2023/10/17 03:29:23;;;;;;;4.93;1.60;;;9.80;99.90;;;;;;5092207;28;20082;-51
2023/10/17 03:31:53;;;;;;;5.93;1.58;;;9.80;99.90;;;;;;5092109;28;20052;-53
2023/10/17 03:34:33;;;;;;;8.20;1.65;;;9.90;99.90;;;;;;5092061;28;20048;-55
2023/10/17 03:37:26;;;;;;;3.80;1.95;;;9.90;99.90;;;;;;5093023;28;20433;-55
2023/10/17 03:39:54;;;;;;;4.40;1.27;;;9.90;99.90;;;;;;5093044;28;20076;-54
2023/10/17 03:45:12;;;;;;;6.38;1.50;;;9.90;99.90;;;;;;5093769;28;20036;-54
2023/10/17 03:47:39;;;;;;;3.17;1.17;;;9.90;99.90;;;;;;5092840;28;20036;-55
2023/10/17 03:50:08;;;;;;;4.20;1.40;;;9.90;99.90;;;;;;5092764;28;20479;-56
2023/10/17 03:52:38;;;;;;;6.28;1.27;;;9.90;99.90;;;;;;5093422;28;20055;-54
2023/10/17 03:55:10;;;;;;;7.57;1.38;;;9.90;99.90;;;;;;5093694;28;20040;-52
2023/10/17 03:57:52;;;;;;;4.18;1.40;;;9.90;99.90;;;;;;5093671;28;20141;-55
2023/10/17 04:00:25;;;;;;;8.27;1.50;;;9.90;99.90;;;;;;5096793;28;20506;-57
2023/10/17 04:02:52;;;;;;;4.95;1.15;;;9.90;99.90;;;;;;5096659;28;20038;-53
2023/10/17 04:05:23;;;;;;;6.40;1.40;;;10.00;99.90;;;;;;5096636;28;20047;-54
2023/10/17 04:07:52;;;;;;;5.00;1.30;;;10.00;99.90;;;;;;5097166;28;20054;-56
2023/10/17 04:10:22;;;;;;;7.10;1.52;;;10.00;99.90;;;;;;5096484;28;20043;-52
2023/10/17 04:12:58;;;;;;;5.03;1.58;;;10.00;99.90;;;;;;5096762;28;20113;-53
2023/10/17 04:15:25;;;;;;;3.83;1.30;;;10.00;99.90;;;;;;5097008;28;20067;-55
2023/10/17 04:17:52;;;;;;;5.43;1.90;;;10.00;99.90;;;;;;5096674;28;20434;-58
2023/10/17 04:20:22;;;;;;;5.85;1.65;;;10.00;99.90;;;;;;5096427;28;20064;-59
2023/10/17 04:22:49;;;;;;;3.53;1.42;;;10.00;99.90;;;;;;5096404;28;20036;-51
2023/10/17 04:25:34;;;;;;;5.53;1.58;;;10.00;99.90;;;;;;5096350;28;20036;-53
2023/10/17 04:28:01;;;;;;;7.00;1.80;;;10.00;99.90;;;;;;5096620;28;20048;-53
2023/10/17 04:30:35;;;;;;;8.32;1.88;;;10.00;99.90;;;;;;5095164;28;20123;-54
2023/10/17 04:33:12;;;;;;;3.80;1.60;;;10.00;99.90;;;;;;5096529;28;20040;-56
2023/10/17 04:35:46;;;;;;;5.43;1.52;;;10.00;99.90;;;;;;5096539;28;20123;-58
2023/10/17 04:38:26;;;;;;;4.28;1.50;;;10.00;99.90;;;;;;5096017;28;20595;-51
2023/10/17 04:40:54;;;;;;;5.15;1.58;;;10.00;99.90;;;;;;5094801;28;20068;-50
2023/10/17 04:46:09;;;;;;;6.20;1.65;;;10.00;99.90;;;;;;5096635;28;20044;-57
2023/10/17 04:48:40;;;;;;;4.35;1.77;;;10.00;99.90;;;;;;5096190;28;20120;-53
2023/10/17 04:53:49;;;;;;;6.45;1.80;;;9.90;99.90;;;;;;5096390;28;20032;-54
2023/10/17 04:56:17;;;;;;;6.20;2.55;;;9.90;99.90;;;;;;5095948;28;20051;-53
2023/10/17 04:58:49;;;;;;;9.25;1.98;;;9.90;99.90;;;;;;5096265;28;20107;-56
2023/10/17 05:04:03;;;;;;;6.53;2.30;;;9.90;99.90;;;;;;5095805;28;20039;-58
2023/10/17 06:18:07;;;;;;;9.27;4.25;;;9.10;99.90;;;;;;5094413;28;20071;-54
2023/10/17 06:23:23;;;;;;;9.23;3.90;;;9.00;99.90;;;;;;5094175;28;20487;-59
2023/10/17 06:28:34;;;;;;;11.18;4.38;;;9.00;99.90;;;;;;5093809;28;20044;-57
2023/10/17 06:33:46;;;;;;;10.50;4.05;;;9.00;99.90;;;;;;5093894;28;20044;-58
2023/10/17 06:36:13;;;;;;;7.07;3.95;;;9.00;99.90;;;;;;5093600;28;20036;-58
2023/10/17 06:38:46;;;;;;;16.33;5.68;;;9.00;99.90;;;;;;5093453;28;20134;-57
2023/10/17 06:41:16;;;;;;;9.05;4.22;;;9.00;99.90;;;;;;5093523;28;20055;-55
2023/10/17 06:43:49;;;;;;;11.98;4.68;;;9.10;99.90;;;;;;5093867;28;20036;-57
2023/10/17 06:46:28;;;;;;;10.88;4.63;;;9.10;99.90;;;;;;5093543;28;20036;-57
2023/10/17 06:49:04;;;;;;;10.13;4.40;;;9.10;99.90;;;;;;5093498;28;20066;-56
2023/10/17 06:51:33;;;;;;;10.35;4.32;;;9.20;99.90;;;;;;5093289;28;20055;-56
2023/10/17 06:54:05;;;;;;;9.57;4.15;;;9.30;99.90;;;;;;5093843;28;20040;-58
2023/10/17 06:56:38;;;;;;;15.55;5.00;;;9.30;99.90;;;;;;5093595;28;20055;-55
2023/10/17 06:59:05;;;;;;;13.02;4.97;;;9.40;99.90;;;;;;5093754;28;20052;-56
2023/10/17 07:01:35;;;;;;;10.85;4.20;;;9.40;99.90;;;;;;5093609;28;20114;-56
2023/10/17 07:04:03;;;;;;;10.80;4.18;;;9.50;99.90;;;;;;5093527;28;20497;-53
2023/10/17 07:06:32;;;;;;;10.65;4.13;;;9.50;99.90;;;;;;5093269;28;20040;-54
2023/10/17 07:09:04;;;;;;;10.63;3.95;;;9.60;99.90;;;;;;5093192;28;20437;-57
2023/10/17 07:11:35;;;;;;;10.90;3.95;;;9.70;99.90;;;;;;5093581;28;20042;-57
2023/10/17 07:16:34;;;;;;;7.60;4.05;;;9.80;99.90;;;;;;5093109;28;20046;-57
2023/10/17 07:19:46;;;;;;;9.65;3.97;;;9.80;99.90;;;;;;5090819;28;20066;-57
2023/10/17 07:24:37;;;;;;;11.00;3.85;;;10.00;99.90;;;;;;5092705;28;20036;-59
2023/10/17 07:27:11;;;;;;;12.90;4.00;;;10.00;99.90;;;;;;5092742;28;20545;-54
2023/10/17 07:29:45;;;;;;;10.63;3.95;;;10.10;99.90;;;;;;5091753;28;20044;-56
2023/10/17 07:32:16;;;;;;;8.55;3.72;;;10.20;99.90;;;;;;5092405;28;20040;-59
2023/10/17 07:34:44;;;;;;;8.63;4.35;;;10.20;99.90;;;;;;5096412;28;20051;-60
2023/10/17 07:40:17;;;;;;;10.82;3.28;;;10.30;99.90;;;;;;5097282;28;20093;-55
2023/10/17 07:42:45;;;;;;;8.68;2.92;;;10.40;99.90;;;;;;5097006;28;20074;-59
2023/10/17 07:45:17;;;;;;;11.38;3.72;;;10.40;99.90;;;;;;5096222;28;20116;-58
2023/10/17 07:47:51;;;;;;;9.95;3.10;;;10.50;99.90;;;;;;5095072;28;20040;-59
2023/10/17 07:50:18;;;;;;;9.63;3.40;;;10.50;99.90;;;;;;5095145;28;20395;-57
2023/10/17 07:52:50;;;;;;;7.22;2.78;;;10.60;99.90;;;;;;5095330;28;20072;-55
2023/10/17 07:55:18;;;;;;;8.20;2.75;;;10.60;99.90;;;;;;5096059;28;20067;-54
2023/10/17 07:57:46;;;;;;;8.93;2.47;;;10.70;99.90;;;;;;5094161;28;20047;-52
2023/10/17 08:03:00;;;;;;;8.55;2.35;;;10.80;99.90;;;;;;5097021;28;20036;-48
2023/10/17 08:05:37;;;;;;;8.27;2.38;;;10.90;99.90;;;;;;5096538;28;20083;-52
2023/10/17 08:08:08;;;;;;;6.90;2.53;;;10.90;99.90;;;;;;5096710;28;20028;-52
2023/10/17 08:10:39;;;;;;;11.13;2.25;;;11.00;99.90;;;;;;5096505;28;20059;-54
2023/10/17 08:13:09;;;;;;;6.07;2.72;;;11.00;99.90;;;;;;5096831;28;20040;-54
2023/10/17 08:15:46;;;;;;;6.45;2.30;;;11.10;99.90;;;;;;5097019;28;20085;-55
2023/10/17 08:18:16;;;;;;;7.85;2.40;;;11.10;99.90;;;;;;5097070;28;20058;-57
2023/10/17 08:23:29;;;;;;;6.20;2.30;;;11.20;99.90;;;;;;5096956;28;20450;-57
2023/10/17 08:25:59;;;;;;;8.77;2.40;;;11.20;99.90;;;;;;5096705;28;20517;-57
2023/10/17 08:31:22;;;;;;;6.05;1.88;;;11.30;99.90;;;;;;5096670;28;20074;-59
2023/10/17 08:39:26;;;;;;;10.90;1.88;;;11.40;99.90;;;;;;5096694;28;20515;-52
2023/10/17 08:41:57;;;;;;;7.63;1.90;;;11.50;99.90;;;;;;5096384;28;20051;-53
2023/10/17 08:44:25;;;;;;;5.32;1.73;;;11.50;99.90;;;;;;5096579;28;20403;-58
2023/10/17 08:46:55;;;;;;;5.03;1.60;;;11.50;99.90;;;;;;5096089;28;20097;-52
2023/10/17 08:49:22;;;;;;;7.75;1.85;;;11.60;99.90;;;;;;5095862;28;20032;-52
2023/10/17 08:51:49;;;;;;;5.95;1.38;;;11.60;99.90;;;;;;5096454;28;20098;-57
2023/10/17 08:54:19;;;;;;;3.60;1.30;;;11.70;99.90;;;;;;5095806;28;20044;-52
2023/10/17 08:56:47;;;;;;;5.95;1.40;;;11.70;99.90;;;;;;5095924;28;20040;-56
2023/10/17 09:02:03;;;;;;;5.50;1.50;;;11.80;99.90;;;;;;5074728;28;20055;-56
2023/10/17 09:04:33;;;;;;;6.07;1.70;;;11.90;99.90;;;;;;5096227;28;20040;-54
2023/10/17 09:07:08;;;;;;;5.45;1.55;;;11.90;99.90;;;;;;5095766;28;20448;-53
2023/10/17 09:09:35;;;;;;;7.57;1.75;;;12.00;99.90;;;;;;5095610;28;20495;-53
2023/10/17 09:12:04;;;;;;;5.32;1.58;;;12.00;99.90;;;;;;5095272;28;20039;-54
2023/10/17 09:14:31;;;;;;;3.13;1.00;;;12.10;99.90;;;;;;5095176;28;20085;-53
2023/10/17 09:17:21;;;;;;;5.50;1.30;;;12.20;99.90;;;;;;5094520;28;20056;-54
2023/10/17 09:19:51;;;;;;;6.93;1.83;;;12.20;99.90;;;;;;5096022;28;20044;-54
2023/10/17 09:22:20;;;;;;;8.07;1.70;;;12.30;99.90;;;;;;5095607;28;20032;-58
2023/10/17 09:24:50;;;;;;;8.15;1.70;;;12.30;99.90;;;;;;5095111;28;20052;-53
2023/10/17 09:27:17;;;;;;;5.38;1.80;;;12.40;99.90;;;;;;5095260;28;20086;-56
2023/10/17 09:29:44;;;;;;;6.15;1.40;;;12.40;99.90;;;;;;5095521;28;20053;-57
2023/10/17 09:32:11;;;;;;;5.03;1.70;;;12.40;99.90;;;;;;5095401;28;20047;-56
2023/10/17 09:34:40;;;;;;;6.57;1.98;;;12.40;99.90;;;;;;5095425;28;20357;-56
2023/10/17 09:37:12;;;;;;;5.75;1.27;;;12.50;99.90;;;;;;5094022;28;20119;-55
2023/10/17 09:39:46;;;;;;;6.65;1.60;;;12.50;99.90;;;;;;5095588;28;20066;-54
2023/10/17 09:42:13;;;;;;;5.35;1.33;;;12.50;99.90;;;;;;5095053;28;20040;-59
2023/10/17 09:44:40;;;;;;;8.55;1.65;;;12.60;99.90;;;;;;5095188;28;20047;-54
2023/10/17 09:47:08;;;;;;;8.30;1.85;;;12.50;99.90;;;;;;5094897;28;20043;-55
2023/10/17 09:49:35;;;;;;;7.35;1.98;;;12.50;99.90;;;;;;5094613;28;20040;-58
2023/10/17 09:52:02;;;;;;;4.93;1.65;;;12.60;99.90;;;;;;5094726;28;20048;-56
2023/10/17 09:54:29;;;;;;;6.25;1.58;;;12.60;99.90;;;;;;5095121;28;20058;-53
2023/10/17 09:56:57;;;;;;;6.05;1.90;;;12.60;99.90;;;;;;5094257;28;20075;-51
2023/10/17 09:59:24;;;;;;;7.72;1.70;;;12.70;99.90;;;;;;5094873;28;20040;-54
2023/10/17 10:01:51;;;;;;;8.63;2.08;;;12.70;99.90;;;;;;5094486;28;20040;-52
2023/10/17 10:04:18;;;;;;;5.85;1.80;;;12.70;99.90;;;;;;5094825;28;20048;-54
2023/10/17 10:06:47;;;;;;;8.73;1.70;;;12.80;99.90;;;;;;5093897;28;20380;-55
2023/10/17 10:09:15;;;;;;;5.90;1.63;;;12.80;99.90;;;;;;5094319;28;20043;-58
2023/10/17 10:11:42;;;;;;;7.10;1.77;;;12.90;99.90;;;;;;5094596;28;20036;-57
2023/10/17 10:14:09;;;;;;;9.90;1.50;;;12.90;99.90;;;;;;5094331;28;20059;-55
2023/10/17 10:16:36;;;;;;;5.93;1.42;;;12.90;99.90;;;;;;5094619;28;20283;-56
2023/10/17 10:19:03;;;;;;;4.38;1.40;;;12.90;99.90;;;;;;5094565;28;20072;-55
2023/10/17 10:21:30;;;;;;;5.95;1.45;;;12.90;99.90;;;;;;5094592;28;20471;-52
2023/10/17 10:23:57;;;;;;;4.82;1.38;;;12.90;99.90;;;;;;5093991;28;20118;-52
2023/10/17 10:26:25;;;;;;;5.55;2.08;;;12.90;99.90;;;;;;5094277;28;20048;-53
2023/10/17 10:28:52;;;;;;;5.43;1.48;;;12.90;99.90;;;;;;5093777;28;20036;-58
2023/10/17 10:31:19;;;;;;;4.97;1.30;;;12.90;99.90;;;;;;5093967;28;20426;-56
2023/10/17 10:33:46;;;;;;;4.93;1.38;;;12.90;99.90;;;;;;5094029;28;20044;-56
2023/10/17 10:36:13;;;;;;;4.88;1.60;;;12.90;99.90;;;;;;5094463;28;20046;-56
2023/10/17 10:38:40;;;;;;;5.70;1.60;;;13.00;99.90;;;;;;5092710;28;20068;-57
2023/10/17 10:41:07;;;;;;;6.43;1.60;;;13.00;99.90;;;;;;5093907;28;20402;-58
2023/10/17 10:43:34;;;;;;;6.40;1.77;;;13.10;99.90;;;;;;5093681;28;20398;-53
2023/10/17 10:46:01;;;;;;;6.90;1.77;;;13.10;99.90;;;;;;5093726;28;20040;-53
2023/10/17 10:48:28;;;;;;;5.25;1.50;;;13.20;99.90;;;;;;5093649;28;20036;-51
2023/10/17 10:50:55;;;;;;;6.20;1.55;;;13.20;99.90;;;;;;5093872;28;20056;-51
2023/10/17 10:53:22;;;;;;;5.60;1.63;;;13.30;99.90;;;;;;5093615;28;20040;-54
2023/10/17 10:55:49;;;;;;;6.82;1.60;;;13.30;99.90;;;;;;5093766;28;20071;-49
2023/10/17 10:58:18;;;;;;;5.57;1.25;;;13.30;99.90;;;;;;5093294;28;20066;-49
2023/10/17 11:00:45;;;;;;;7.47;1.20;;;13.30;99.90;;;;;;5093635;28;20097;-55
2023/10/17 11:03:12;;;;;;;6.93;1.70;;;13.30;99.90;;;;;;5093252;28;20040;-53
2023/10/17 11:05:39;;;;;;;7.45;1.42;;;13.30;99.90;;;;;;5094263;28;20445;-49
2023/10/17 11:08:06;;;;;;;7.32;1.77;;;13.40;99.90;;;;;;5092312;28;20047;-55
2023/10/17 11:10:33;;;;;;;4.35;1.45;;;13.40;99.90;;;;;;5093868;28;20044;-53
2023/10/17 11:13:01;;;;;;;6.13;1.42;;;13.40;99.90;;;;;;5093208;28;20119;-53
2023/10/17 11:15:30;;;;;;;6.55;1.52;;;13.40;99.90;;;;;;5093204;28;20052;-52
2023/10/17 11:17:57;;;;;;;12.18;1.63;;;13.50;99.90;;;;;;5092867;28;20105;-56
2023/10/17 11:20:24;;;;;;;7.78;1.55;;;13.50;99.90;;;;;;5093404;28;20464;-54
2023/10/17 11:22:51;;;;;;;3.97;1.48;;;13.50;99.90;;;;;;5093286;28;20422;-50
2023/10/17 11:25:26;;;;;;;6.97;1.90;;;13.50;99.90;;;;;;5093497;28;20040;-56
2023/10/17 11:27:54;;;;;;;;;;;13.50;99.90;;;;;;5092208;28;20052;-52
2023/10/17 11:30:29;;;;;;;4.70;1.60;;;13.50;99.90;;;;;;5093586;28;19923;-50
2023/10/17 11:32:56;;;;;;;8.60;1.90;;;13.40;99.90;;;;;;5093314;28;20036;-53
2023/10/17 11:35:29;;;;;;;4.70;1.55;;;13.50;99.90;;;;;;5092804;28;20043;-53
2023/10/17 11:37:56;;;;;;;4.75;1.35;;;13.50;99.90;;;;;;5093090;28;20036;-53
2023/10/17 11:40:44;;;;;;;4.47;1.58;;;13.50;99.90;;;;;;5093621;28;20048;-54
2023/10/17 11:43:11;;;;;;;4.10;1.30;;;13.50;99.90;;;;;;5092980;28;20467;-55
2023/10/17 11:45:38;;;;;;;6.80;1.45;;;13.60;99.90;;;;;;5093199;28;20101;-56
2023/10/17 11:48:14;;;;;;;6.07;1.70;;;13.60;99.90;;;;;;5092980;28;20044;-53
2023/10/17 11:50:41;;;;;;;8.93;1.70;;;13.60;99.80;;;;;;5092996;28;20076;-56
2023/10/17 11:53:12;;;;;;;6.05;1.30;;;13.70;99.60;;;;;;5092248;28;20097;-58
2023/10/17 11:55:39;;;;;;;3.05;1.10;;;13.70;99.90;;;;;;5090588;28;20047;-57
2023/10/17 11:58:06;;;;;;;6.35;1.20;;;13.70;99.90;;;;;;5091198;28;20079;-57
2023/10/17 12:00:35;;;;;;;8.80;1.90;;;13.80;99.80;;;;;;5091999;28;20064;-54
2023/10/17 12:03:02;;;;;;;7.90;1.40;;;13.90;99.30;;;;;;5088118;28;20102;-50
2023/10/17 12:05:31;;;;;;;3.42;1.30;;;14.00;99.50;;;;;;5092031;28;20041;-53
2023/10/17 12:07:59;;;;;;;6.38;1.40;;;14.00;98.70;;;;;;5091541;28;20044;-53
2023/10/17 12:10:28;;;;;;;6.63;2.00;;;14.10;99.00;;;;;;5089361;28;20119;-57
2023/10/17 12:13:01;;;;;;;3.92;1.15;;;14.10;98.50;;;;;;5091494;28;20043;-56
2023/10/17 12:15:28;;;;;;;5.47;1.40;;;14.10;98.60;;;;;;5091821;28;20075;-55
2023/10/17 12:17:56;;;;;;;6.35;1.30;;;14.10;98.90;;;;;;5091823;28;20054;-54
2023/10/17 12:20:27;;;;;;;7.22;1.30;;;14.10;98.60;;;;;;5095649;28;20060;-56
2023/10/17 12:22:54;;;;;;;5.28;1.23;;;14.10;98.60;;;;;;5095884;28;20140;-58
2023/10/17 12:25:23;;;;;;;6.63;1.13;;;14.00;98.90;;;;;;5096033;28;20438;-58
2023/10/17 12:27:52;;;;;;;5.00;1.45;;;13.90;98.70;;;;;;5095178;28;20119;-58
2023/10/17 12:30:24;;;;;;;4.57;1.02;;;13.90;98.80;;;;;;5095757;28;20134;-55
2023/10/17 12:32:51;;;;;;;5.10;1.23;;;13.90;98.90;;;;;;5087922;28;20093;-58
2023/10/17 12:35:21;;;;;;;5.78;1.10;;;13.80;99.10;;;;;;5089611;28;20116;-53
2023/10/17 12:37:51;;;;;;;5.22;1.50;;;13.80;99.70;;;;;;5090139;28;20079;-54
2023/10/17 12:40:21;;;;;;;8.40;1.30;;;13.80;99.90;;;;;;5096090;28;20442;-61
2023/10/17 12:42:48;;;;;;;6.57;1.60;;;13.70;99.90;;;;;;5096029;28;20044;-55
2023/10/17 12:45:15;;;;;;;5.85;1.52;;;13.70;99.90;;;;;;5095665;28;20399;-57
2023/10/17 12:47:45;;;;;;;6.22;1.38;;;13.70;99.90;;;;;;5094284;28;20058;-58
2023/10/17 12:50:12;;;;;;;5.97;1.70;;;13.70;99.90;;;;;;5095658;28;20425;-56
2023/10/17 12:52:39;;;;;;;4.85;1.30;;;13.70;99.90;;;;;;5095742;28;20032;-58
2023/10/17 12:55:07;;;;;;;4.78;1.10;;;13.70;99.90;;;;;;5095775;28;20040;-57
2023/10/17 12:57:36;;;;;;;5.80;1.40;;;13.70;99.90;;;;;;5095744;28;20048;-58
2023/10/17 13:00:09;;;;;;;10.32;1.52;;;13.70;99.90;;;;;;5095053;28;20156;-59
2023/10/17 13:02:35;;;;;;;4.70;1.17;;;13.70;99.90;;;;;;5095572;28;20491;-54
2023/10/17 13:05:05;;;;;;;4.65;1.35;;;13.80;99.90;;;;;;5095535;28;20036;-57
2023/10/17 13:07:32;;;;;;;5.65;1.45;;;13.80;99.90;;;;;;5095347;28;20072;-56
2023/10/17 13:09:59;;;;;;;6.88;1.27;;;13.90;99.90;;;;;;5095802;28;20048;-54
2023/10/17 13:12:26;;;;;;;4.50;1.40;;;13.80;99.90;;;;;;5094759;28;20044;-52
2023/10/17 13:14:54;;;;;;;7.28;1.30;;;13.80;99.90;;;;;;5095161;28;20064;-52
2023/10/17 13:17:22;;;;;;;4.15;1.25;;;13.90;99.90;;;;;;5094757;28;20036;-55
2023/10/17 13:19:51;;;;;;;5.13;1.20;;;13.90;99.90;;;;;;5095349;28;20068;-54
2023/10/17 13:22:19;;;;;;;7.85;1.40;;;13.90;99.90;;;;;;5094829;28;20058;-53
2023/10/17 13:24:48;;;;;;;7.13;1.38;;;13.90;99.90;;;;;;5095238;28;20040;-58
2023/10/17 13:27:15;;;;;;;7.95;1.67;;;13.90;99.90;;;;;;5095011;28;20048;-56
2023/10/17 13:29:47;;;;;;;9.63;1.70;;;13.90;99.90;;;;;;5090845;28;20514;-53
2023/10/17 13:32:13;;;;;;;5.35;1.50;;;13.90;99.90;;;;;;5095116;28;20044;-55
2023/10/17 13:34:40;;;;;;;5.15;1.70;;;13.90;99.90;;;;;;5093310;28;20123;-50
2023/10/17 13:37:08;;;;;;;5.47;1.23;;;13.90;99.90;;;;;;5095319;28;20043;-56
2023/10/17 13:39:36;;;;;;;5.20;1.20;;;13.90;99.90;;;;;;5094975;28;20411;-49
2023/10/17 13:42:04;;;;;;;7.65;1.40;;;13.90;99.90;;;;;;5094367;28;20044;-52
2023/10/17 13:44:31;;;;;;;6.22;1.45;;;13.80;99.90;;;;;;5094769;28;20036;-51
2023/10/17 13:46:58;;;;;;;7.18;1.55;;;13.90;99.90;;;;;;5094675;28;20475;-48
2023/10/17 13:49:26;;;;;;;6.72;1.40;;;13.90;99.90;;;;;;5092652;28;20119;-60
2023/10/17 13:51:55;;;;;;;6.32;1.42;;;13.90;99.90;;;;;;5094356;28;20118;-51
2023/10/17 13:54:22;;;;;;;7.65;1.88;;;13.90;99.90;;;;;;5089644;28;20040;-57
2023/10/17 13:56:49;;;;;;;8.50;1.65;;;13.80;99.90;;;;;;5094479;28;20040;-55
2023/10/17 13:59:17;;;;;;;6.30;1.38;;;13.80;99.90;;;;;;5092828;28;20043;-55
2023/10/17 14:01:47;;;;;;;4.68;1.40;;;13.90;99.90;;;;;;5093036;28;20123;-57
2023/10/17 14:04:14;;;;;;;8.63;2.00;;;13.90;99.90;;;;;;5094129;28;20036;-56
2023/10/17 14:06:42;;;;;;;5.03;1.35;;;13.90;99.90;;;;;;5094055;28;20438;-58
2023/10/17 14:09:15;;;;;;;7.93;1.83;;;14.00;99.90;;;;;;5093602;28;20455;-58
2023/10/17 14:11:42;;;;;;;6.30;1.50;;;14.00;99.90;;;;;;5094091;28;20489;-53
2023/10/17 14:14:10;;;;;;;6.30;1.42;;;13.90;99.90;;;;;;5093695;28;20047;-54
2023/10/17 14:16:40;;;;;;;6.47;1.60;;;13.90;99.90;;;;;;5094269;28;20118;-50
2023/10/17 14:19:15;;;;;;;6.85;1.58;;;13.90;99.90;;;;;;5093652;28;20047;-55
2023/10/17 14:24:29;;;;;;;8.80;1.90;;;13.90;99.90;;;;;;5093221;28;20036;-59
2023/10/17 14:26:57;;;;;;;6.97;1.63;;;14.00;99.90;;;;;;5087668;28;20548;-58
2023/10/17 14:29:24;;;;;;;6.97;1.75;;;14.00;99.90;;;;;;5087103;28;20043;-59
2023/10/17 14:31:51;;;;;;;6.15;1.95;;;13.90;99.90;;;;;;5087243;28;20067;-55
2023/10/17 14:34:18;;;;;;;6.40;1.90;;;13.90;99.90;;;;;;5094100;28;20369;-55
2023/10/17 14:36:47;;;;;;;9.55;1.90;;;13.90;99.90;;;;;;5093428;28;20486;-58
2023/10/17 14:39:14;;;;;;;8.45;1.75;;;14.00;99.90;;;;;;5086837;28;20135;-57
2023/10/17 14:41:41;;;;;;;8.30;1.77;;;13.90;99.90;;;;;;5093344;28;20071;-58
2023/10/17 14:44:08;;;;;;;5.97;1.45;;;13.90;99.90;;;;;;5093688;28;20067;-55
2023/10/17 14:46:35;;;;;;;7.35;1.58;;;13.90;99.90;;;;;;5092252;28;20035;-58
2023/10/17 14:49:02;;;;;;;9.85;2.50;;;13.90;99.90;;;;;;5092382;28;20028;-59
2023/10/17 14:51:29;;;;;;;9.23;1.80;;;14.00;99.90;;;;;;5093013;28;20060;-54
2023/10/17 14:53:55;;;;;;;10.35;1.80;;;14.00;99.90;;;;;;5093043;28;20461;-57
2023/10/17 14:56:22;;;;;;;9.18;1.70;;;14.00;99.90;;;;;;5091999;28;20498;-57
2023/10/17 14:58:49;;;;;;;9.57;1.70;;;14.00;99.90;;;;;;5091133;28;20379;-56
2023/10/17 15:01:17;;;;;;;9.90;2.00;;;14.00;99.90;;;;;;5091713;28;20050;-58
2023/10/17 15:03:44;;;;;;;5.75;1.70;;;14.00;99.90;;;;;;5089956;28;20076;-57
2023/10/17 15:06:11;;;;;;;8.73;1.98;;;14.00;99.90;;;;;;5090690;28;20028;-57